Latest Coastal Weather Observations for Adele Island

IDW60701

Issued at 8:03 am WST Thursday 8 December 2016 (issued every 10 minutes, with the page automatically refreshed every 10 minutes)

About coastal observations | Map of coastal stations | Coastal observations for WA | Marine services | Other Formats
Station Details ID: 200735 Name: ADELE ISLAND Lat: -15.51 Lon: 123.16 Height: 4.6 m
Data from the previous 72 hours. | See also: Recent months at Adele Island
Date/Time
WST
Temp
°C
Wind Pressure Rain since
9am
mm
Weather Cloud Vis
km
Sea
Height
m
Swell
Dir  Spd
kts
Gust
kts
hPa Trend Height
m
Period
s
Dir
08/08:00am 30.7 WSW 12 15 1008.0 - - - - - - - - -
08/07:30am 30.4 SSW 10 12 1008.2 - - - - - - - - -
08/07:00am 30.2 SW 9 11 1008.2 - - - - - - - - -
08/06:30am 29.8 SW 10 13 1008.2 - - - - - - - - -
08/06:00am 29.8 SW 9 11 1008.1 - - - - - - - - -
08/05:30am 29.5 WSW 7 10 1007.6 - - - - - - - - -
08/05:00am 29.6 W 10 12 1007.4 - - - - - - - - -
08/04:30am 29.6 W 10 13 1007.2 - - - - - - - - -
08/04:00am 29.5 W 10 11 1007.0 - - - - - - - - -
08/03:30am 29.4 WNW 8 9 1006.8 - - - - - - - - -
08/03:00am 29.6 WNW 8 9 1006.6 - - - - - - - - -
08/02:30am 29.6 WNW 8 10 1006.7 - - - - - - - - -
08/02:00am 29.7 WNW 9 10 1006.9 - - - - - - - - -
08/01:30am 29.4 WNW 9 11 1007.0 - - - - - - - - -
08/01:00am 29.6 W 9 11 1007.2 - - - - - - - - -
08/12:30am 29.6 WNW 8 10 1007.4 - - - - - - - - -
08/12:00am 29.5 WNW 9 11 1007.6 - - - - - - - - -
 
Date/Time
WST
Temp
°C
Wind Pressure Rain since
9am
mm
Weather Cloud Vis
km
Sea
Height
m
Swell
Dir  Spd
kts
Gust
kts
hPa Trend Height
m
Period
s
Dir
07/11:30pm 29.5 WNW 8 10 1007.8 - - - - - - - - -
07/11:00pm 29.6 W 10 12 1008.1 - - - - - - - - -
07/10:30pm 29.8 W 10 12 1008.4 - - - - - - - - -
07/10:00pm 29.9 W 10 13 1008.8 - - - - - - - - -
07/09:30pm 30.1 W 10 12 1008.9 - - - - - - - - -
07/09:00pm 30.0 W 10 11 1008.8 - - - - - - - - -
07/08:30pm 30.6 W 8 10 1008.7 - - - - - - - - -
07/08:00pm 30.3 W 8 10 1008.2 - - - - - - - - -
07/07:30pm 30.5 W 6 8 1007.7 - - - - - - - - -
07/07:00pm 30.4 WNW 6 7 1007.2 - - - - - - - - -
07/06:30pm 30.4 NNW 5 7 1006.7 - - - - - - - - -
07/06:00pm 30.5 WSW 6 7 1006.5 - - - - - - - - -
07/05:30pm 30.6 WNW 5 9 1006.3 - - - - - - - - -
07/05:00pm 30.8 WSW 7 8 1006.3 - - - - - - - - -
07/04:30pm 31.3 W 6 8 1006.2 - - - - - - - - -
07/04:00pm 31.4 W 5 7 1006.3 - - - - - - - - -
07/03:30pm 31.2 W 6 8 1006.5 - - - - - - - - -
07/03:00pm 31.7 NW 5 7 1006.8 - - - - - - - - -
07/02:30pm 31.2 W 6 9 1007.3 - - - - - - - - -
07/02:00pm 31.8 W 7 8 1007.6 - - - - - - - - -
07/01:30pm 31.1 W 7 8 1007.9 - - - - - - - - -
07/01:00pm 31.3 WNW 6 9 1008.5 - - - - - - - - -
07/12:30pm 31.5 W 7 9 1008.9 - - - - - - - - -
07/12:00pm 31.6 N 4 7 1009.1 - - - - - - - - -
07/11:30am 31.8 NNE 4 6 1009.3 - - - - - - - - -
07/11:00am 31.7 NE 5 7 1009.6 - - - - - - - - -
07/10:30am 31.3 NNE 5 7 1009.9 - - - - - - - - -
07/10:00am 30.6 N 5 7 1010.1 - - - - - - - - -
07/09:30am 30.7 NNE 5 7 1010.3 - - - - - - - - -
07/09:00am 30.8 NNE 4 6 1010.2 - - - - - - - - -
07/08:30am 30.6 NNE 4 5 1010.3 - - - - - - - - -
07/08:00am 29.9 N 3 4 1010.3 - - - - - - - - -
07/07:30am 30.0 CALM 0 0 1010.2 - - - - - - - - -
07/07:00am 29.4 CALM 0 3 1009.9 - - - - - - - - -
07/06:30am 29.3 CALM 0 0 1009.7 - - - - - - - - -
07/06:00am 29.3 NNE 3 4 1009.6 - - - - - - - - -
07/05:30am 29.3 NNE 2 3 1009.2 - - - - - - - - -
07/05:00am 29.5 NNE 3 4 1008.6 - - - - - - - - -
07/04:30am 29.5 NE 4 5 1008.2 - - - - - - - - -
07/04:00am 29.4 NE 4 5 1008.1 - - - - - - - - -
07/03:30am 29.4 ENE 5 6 1007.9 - - - - - - - - -
07/03:00am 29.4 E 7 8 1007.8 - - - - - - - - -
07/02:30am 29.2 ENE 4 4 1007.8 - - - - - - - - -
07/02:00am 28.8 ENE 4 5 1008.1 - - - - - - - - -
07/01:30am 28.6 E 5 6 1008.0 - - - - - - - - -
07/01:00am 28.2 ESE 6 6 1008.1 - - - - - - - - -
07/12:30am 28.7 E 5 6 1008.6 - - - - - - - - -
07/12:00am 28.5 E 4 6 1008.9 - - - - - - - - -
 
Date/Time
WST
Temp
°C
Wind Pressure Rain since
9am
mm
Weather Cloud Vis
km
Sea
Height
m
Swell
Dir  Spd
kts
Gust
kts
hPa Trend Height
m
Period
s
Dir
06/11:30pm 28.6 CALM 0 0 1009.0 - - - - - - - - -
06/11:00pm 28.8 NE 3 4 1009.1 - - - - - - - - -
06/10:30pm 28.9 E 5 6 1009.4 - - - - - - - - -
06/10:00pm 28.6 ENE 4 4 1009.6 - - - - - - - - -
06/09:30pm 28.6 E 5 5 1009.6 - - - - - - - - -
06/09:00pm 28.7 E 4 6 1009.6 - - - - - - - - -
06/08:30pm 28.9 NE 4 5 1009.5 - - - - - - - - -
06/08:00pm 29.1 N 4 5 1009.2 - - - - - - - - -
06/07:30pm 29.1 NNW 4 5 1009.0 - - - - - - - - -
06/07:00pm 29.2 N 5 6 1009.1 - - - - - - - - -
06/06:30pm 29.2 NW 6 7 1008.8 - - - - - - - - -
06/06:00pm 29.5 NNW 5 6 1008.8 - - - - - - - - -
06/05:30pm 29.8 W 5 6 1008.8 - - - - - - - - -
06/05:00pm 29.8 W 6 8 1008.3 - - - - - - - - -
06/04:30pm 29.9 WSW 7 8 1007.8 - - - - - - - - -
06/04:00pm 29.7 W 7 8 1007.4 - - - - - - - - -
06/03:30pm 30.0 W 5 7 1007.5 - - - - - - - - -
06/03:00pm 30.1 N 4 6 1007.8 - - - - - - - - -
06/02:30pm 30.3 N 5 6 1007.9 - - - - - - - - -
06/02:00pm 30.5 NE 4 6 1008.2 - - - - - - - - -
06/01:30pm 30.5 NNE 4 6 1008.6 - - - - - - - - -
06/01:00pm 30.2 NE 4 7 1008.9 - - - - - - - - -
06/12:30pm 30.6 ENE 5 9 1009.1 - - - - - - - - -
06/12:00pm 30.1 ENE 7 9 1009.4 - - - - - - - - -
06/11:30am 30.3 E 8 11 1009.5 - - - - - - - - -
06/11:00am 30.2 E 9 11 1009.6 - - - - - - - - -
06/10:30am 31.2 E 9 11 1010.0 - - - - - - - - -
06/10:00am 30.5 E 10 13 1010.2 - - - - - - - - -
06/09:30am 29.8 E 9 13 1010.6 - - - - - - - - -
06/09:00am 29.7 E 10 13 1010.9 - - - - - - - - -
06/08:30am 29.8 E 9 11 1011.2 - - - - - - - - -
06/08:00am 29.6 E 9 11 1010.8 - - - - - - - - -
06/07:30am 29.2 E 7 9 1010.5 - - - - - - - - -
06/07:00am 29.7 E 7 9 1010.4 - - - - - - - - -
06/06:30am 28.8 ESE 6 7 1009.9 - - - - - - - - -
06/06:00am 28.6 ESE 6 7 1009.6 - - - - - - - - -
06/05:30am 28.1 SE 7 8 1009.3 - - - - - - - - -
06/05:00am 28.3 ESE 7 9 1009.2 - - - - - - - - -
06/04:30am 28.1 ESE 6 7 1009.1 - - - - - - - - -
06/04:00am 28.2 E 5 6 1008.8 - - - - - - - - -
06/03:30am 28.3 E 5 6 1008.7 - - - - - - - - -
06/03:00am 28.5 ESE 5 6 1008.4 - - - - - - - - -
06/02:30am 28.4 E 6 7 1008.2 - - - - - - - - -
06/02:00am 27.8 SE 5 5 1008.3 - - - - - - - - -
06/01:30am 27.4 SE 4 5 1008.3 - - - - - - - - -
06/01:00am 27.8 SSE 5 6 1008.7 - - - - - - - - -
06/12:30am 28.1 S 4 5 1009.1 - - - - - - - - -
06/12:00am 27.9 SSE 3 4 1009.3 - - - - - - - - -
 
Date/Time
WST
Temp
°C
Wind Pressure Rain since
9am
mm
Weather Cloud Vis
km
Sea
Height
m
Swell
Dir  Spd
kts
Gust
kts
hPa Trend Height
m
Period
s
Dir
05/11:30pm 27.9 ESE 3 4 1009.5 - - - - - - - - -
05/11:00pm 28.0 SE 3 4 1009.9 - - - - - - - - -
05/10:30pm 28.1 SSE 4 4 1010.2 - - - - - - - - -
05/10:00pm 28.0 S 4 5 1010.3 - - - - - - - - -
05/09:30pm 28.1 S 5 5 1010.2 - - - - - - - - -
05/09:00pm 27.9 SE 4 4 1010.3 - - - - - - - - -
05/08:30pm 27.9 SE 4 5 1010.0 - - - - - - - - -
05/08:00pm 27.8 SE 4 4 1009.8 - - - - - - - - -
05/07:30pm 28.0 SE 4 4 1009.6 - - - - - - - - -
05/07:00pm 27.4 SSE 4 5 1009.1 - - - - - - - - -
05/06:30pm 27.4 SSE 4 5 1008.8 - - - - - - - - -
05/06:00pm 27.5 SE 5 6 1008.7 - - - - - - - - -
05/05:30pm 27.7 SE 5 6 1008.5 - - - - - - - - -
05/05:00pm 27.8 SE 5 6 1008.2 - - - - - - - - -
05/04:30pm 27.7 SSE 5 6 1007.7 - - - - - - - - -
05/04:00pm 27.3 SSE 6 7 1007.4 - - - - - - - - -
05/03:30pm 27.0 SSE 6 8 1007.2 - - - - - - - - -
05/03:00pm 26.4 SSE 7 9 1007.5 - - - - - - - - -
05/02:30pm 26.0 SSE 6 8 1007.9 - - - - - - - - -
05/02:00pm 25.7 S 5 6 1008.2 - - - - - - - - -
05/01:30pm 25.3 SSW 5 6 1008.4 - - - - - - - - -
05/01:00pm 25.1 SSW 4 5 1008.8 - - - - - - - - -
05/12:30pm 25.0 WNW 4 5 1009.2 - - - - - - - - -
05/12:00pm 25.1 CALM 0 3 1009.6 - - - - - - - - -
05/11:30am 25.3 NNW 3 6 1010.4 - - - - - - - - -
05/11:00am 25.4 NNE 3 5 1011.2 - - - - - - - - -
05/10:30am 25.7 N 10 12 1011.4 - - - - - - - - -
05/10:00am 26.0 N 17 20 1011.4 - - - - - - - - -
05/09:30am 24.4 NE 10 13 1011.2 - - - - - - - - -
05/09:00am 25.2 NW 18 25 1010.7 - - - - - - - - -
05/08:58am 25.9 NW 16 22 1010.8 - - - - - - - - -
05/08:30am 28.1 NNE 1 11 1010.7 - - - - - - - - -

Other Formats:

Comma delimited format used in spreadsheet applications
http://www.bom.gov.au/fwo/IDW60701/IDW60701.94210.axf

JavaScript Object Notation format (JSON) in row-major order
http://www.bom.gov.au/fwo/IDW60701/IDW60701.94210.json